createdAt,value
2022-09-23T00:00:42.911Z,9.443681
2022-09-23T00:01:42.995Z,9.443727
2022-09-23T00:02:43.011Z,9.443735
2022-09-23T00:03:42.885Z,9.443782
2022-09-23T00:04:42.906Z,9.443767
2022-09-23T00:05:42.897Z,9.443736
2022-09-23T00:06:42.872Z,9.443718
2022-09-23T00:07:42.869Z,9.443729
2022-09-23T00:08:42.864Z,9.443756
2022-09-23T00:09:42.847Z,9.443685
2022-09-23T00:10:42.868Z,9.443741
2022-09-23T00:11:42.832Z,9.443698
2022-09-23T00:12:42.852Z,9.443641
2022-09-23T00:13:42.824Z,9.443604
2022-09-23T00:14:42.816Z,9.443651
2022-09-23T00:15:42.828Z,9.443661
2022-09-23T00:16:42.921Z,9.443691
2022-09-23T00:17:42.808Z,9.443766
2022-09-23T00:18:42.803Z,9.443706
2022-09-23T00:19:42.820Z,9.443735
2022-09-23T00:20:42.780Z,9.443774
2022-09-23T00:21:42.797Z,9.443751
2022-09-23T00:22:42.780Z,9.443711
2022-09-23T00:23:42.785Z,9.443737
2022-09-23T00:24:42.776Z,9.443758
2022-09-23T00:25:42.749Z,9.443765
2022-09-23T00:26:42.793Z,9.443740
2022-09-23T00:27:42.743Z,9.443712
2022-09-23T00:28:42.750Z,9.443743
2022-09-23T00:29:42.745Z,9.443785
2022-09-23T00:30:42.794Z,9.443739
2022-09-23T00:31:42.730Z,9.443720
2022-09-23T00:32:42.716Z,9.443737
2022-09-23T00:33:42.695Z,9.443719
2022-09-23T00:34:42.724Z,9.443569
2022-09-23T00:35:42.683Z,9.443606
2022-09-23T00:36:42.715Z,9.443682
2022-09-23T00:37:42.680Z,9.443718
2022-09-23T00:38:42.664Z,9.443725
2022-09-23T00:39:42.667Z,9.443741
2022-09-23T00:40:42.769Z,9.443710
2022-09-23T00:41:42.646Z,9.443683
2022-09-23T00:42:42.672Z,9.443654
2022-09-23T00:43:42.632Z,9.443646
2022-09-23T00:44:42.642Z,9.443703
2022-09-23T00:45:42.700Z,9.443691
2022-09-23T00:46:42.608Z,9.443736
2022-09-23T00:47:43.674Z,9.443763
2022-09-23T00:48:42.609Z,9.443744
2022-09-23T00:49:42.617Z,9.443753
2022-09-23T00:50:42.596Z,9.443739
2022-09-23T00:51:42.592Z,9.443705
2022-09-23T00:52:42.598Z,9.443761
2022-09-23T00:53:42.592Z,9.443818
2022-09-23T00:54:42.588Z,9.443799
2022-09-23T00:55:42.565Z,9.443737
2022-09-23T00:56:42.548Z,9.443724
2022-09-23T00:57:42.570Z,9.443720
2022-09-23T00:58:42.570Z,9.443753
2022-09-23T00:59:42.541Z,9.443730
2022-09-23T01:00:42.543Z,9.443768
2022-09-23T01:01:42.618Z,9.443757
2022-09-23T01:02:42.567Z,9.443811
2022-09-23T01:03:42.520Z,9.443740
2022-09-23T01:04:42.507Z,9.443750
2022-09-23T01:05:42.510Z,9.443732
2022-09-23T01:06:42.506Z,9.443686
2022-09-23T01:07:42.507Z,9.443686
2022-09-23T01:08:42.501Z,9.443698
2022-09-23T01:09:42.471Z,9.443729
2022-09-23T01:10:42.474Z,9.443719
2022-09-23T01:11:42.462Z,9.443637
2022-09-23T01:12:42.462Z,9.443630
2022-09-23T01:13:42.471Z,9.443770
2022-09-23T01:14:42.443Z,9.443764
2022-09-23T01:15:42.432Z,9.443667
2022-09-23T01:16:42.525Z,9.443673
2022-09-23T01:17:42.420Z,9.443625
2022-09-23T01:18:42.440Z,9.443649
2022-09-23T01:19:43.412Z,9.443719
2022-09-23T01:20:42.416Z,9.443898
2022-09-23T01:21:42.418Z,9.443949
2022-09-23T01:22:42.401Z,9.443974
2022-09-23T01:23:43.405Z,9.443927
2022-09-23T01:24:42.385Z,9.443864
2022-09-23T01:25:42.380Z,9.443750
2022-09-23T01:26:42.391Z,9.443595
2022-09-23T01:27:42.366Z,9.443598
2022-09-23T01:28:42.363Z,9.443583
2022-09-23T01:29:42.367Z,9.443644
2022-09-23T01:30:42.358Z,9.443605
2022-09-23T01:31:42.331Z,9.443670
2022-09-23T01:32:42.340Z,9.443694
2022-09-23T01:33:42.325Z,9.443714
2022-09-23T01:34:42.335Z,9.443711
2022-09-23T01:35:42.335Z,9.443689
2022-09-23T01:36:42.310Z,9.443677
2022-09-23T01:37:42.312Z,9.443742
2022-09-23T01:38:42.293Z,9.443723
2022-09-23T01:39:42.319Z,9.443732
2022-09-23T01:40:42.386Z,9.443724
2022-09-23T01:41:42.284Z,9.443701
2022-09-23T01:42:42.279Z,9.443710
2022-09-23T01:43:42.275Z,9.443715
2022-09-23T01:44:42.289Z,9.443694
2022-09-23T01:45:42.256Z,9.443699
2022-09-23T01:46:42.247Z,9.443634
2022-09-23T01:47:42.247Z,9.443567
2022-09-23T01:48:42.284Z,9.443681
2022-09-23T01:49:42.247Z,9.443726
2022-09-23T01:50:42.227Z,9.443713
2022-09-23T01:51:42.235Z,9.443731
2022-09-23T01:52:42.203Z,9.443769
2022-09-23T01:53:42.199Z,9.443737
2022-09-23T01:54:42.200Z,9.443789
2022-09-23T01:55:42.209Z,9.443759
2022-09-23T01:56:42.199Z,9.443714
2022-09-23T01:57:42.179Z,9.443715
2022-09-23T01:58:42.163Z,9.443730
2022-09-23T01:59:42.175Z,9.443769
2022-09-23T02:00:42.171Z,9.443754
2022-09-23T02:01:42.320Z,9.443802
2022-09-23T02:02:42.238Z,9.443766
2022-09-23T02:03:42.139Z,9.443733
2022-09-23T02:04:42.147Z,9.443831
2022-09-23T02:05:42.151Z,9.443780
2022-09-23T02:06:42.123Z,9.443770
2022-09-23T02:07:42.127Z,9.443729
2022-09-23T02:08:42.114Z,9.443653
2022-09-23T02:09:42.105Z,9.443748
2022-09-23T02:10:42.124Z,9.443724
2022-09-23T02:11:42.105Z,9.443740
2022-09-23T02:12:42.082Z,9.443791
2022-09-23T02:13:42.100Z,9.443762
2022-09-23T02:14:42.073Z,9.443775
2022-09-23T02:15:42.077Z,9.443811
2022-09-23T02:16:42.118Z,9.443786
2022-09-23T02:17:42.054Z,9.443725
2022-09-23T02:18:42.049Z,9.443761
2022-09-23T02:19:42.044Z,9.443814
2022-09-23T02:20:42.048Z,9.443788
2022-09-23T02:21:42.022Z,9.443737
2022-09-23T02:22:42.033Z,9.443805
2022-09-23T02:23:42.047Z,9.443812
2022-09-23T02:24:42.001Z,9.443766
2022-09-23T02:25:42.022Z,9.443801
2022-09-23T02:26:41.990Z,9.443732
2022-09-23T02:27:41.994Z,9.443781
2022-09-23T02:28:41.990Z,9.443729
2022-09-23T02:29:41.966Z,9.443791
2022-09-23T02:30:41.980Z,9.443816
2022-09-23T02:31:42.003Z,9.443675
2022-09-23T02:32:41.959Z,9.443604
2022-09-23T02:33:41.929Z,9.443548
2022-09-23T02:34:42.945Z,9.443565
2022-09-23T02:35:41.950Z,9.443656
2022-09-23T02:36:41.945Z,9.443633
2022-09-23T02:38:14.350Z,9.443705
2022-09-23T02:38:41.913Z,9.443737
2022-09-23T02:39:41.905Z,9.443764
2022-09-23T02:40:42.067Z,9.443666
2022-09-23T02:41:41.930Z,9.443554
2022-09-23T02:42:41.893Z,9.443493
2022-09-23T02:43:41.878Z,9.443609
2022-09-23T02:44:41.865Z,9.443717
2022-09-23T02:45:42.903Z,9.443634
2022-09-23T02:46:41.869Z,9.443571
2022-09-23T02:47:41.848Z,9.443576
2022-09-23T02:48:41.855Z,9.443451
2022-09-23T02:49:41.867Z,9.443605
2022-09-23T02:50:41.836Z,9.443628
2022-09-23T02:51:41.856Z,9.443661
2022-09-23T02:52:41.840Z,9.443635
2022-09-23T02:53:41.827Z,9.443686
2022-09-23T02:54:42.487Z,9.443634
2022-09-23T02:55:41.822Z,9.443554
2022-09-23T02:56:41.820Z,9.443703
2022-09-23T02:57:41.800Z,9.443689
2022-09-23T02:58:41.806Z,9.443659
2022-09-23T02:59:41.788Z,9.443737
2022-09-23T03:00:41.779Z,9.443554
2022-09-23T03:01:41.813Z,9.443702
2022-09-23T03:02:41.974Z,9.443570
2022-09-23T03:03:41.774Z,9.443642
2022-09-23T03:04:42.361Z,9.443492
2022-09-23T03:05:42.766Z,9.443483
2022-09-23T03:06:41.762Z,9.443616
2022-09-23T03:07:41.750Z,9.443640
2022-09-23T03:08:41.827Z,9.443583
2022-09-23T03:09:41.731Z,9.443665
2022-09-23T03:10:41.718Z,9.443630
2022-09-23T03:11:41.706Z,9.443613
2022-09-23T03:12:41.705Z,9.443706
2022-09-23T03:13:41.706Z,9.443585
2022-09-23T03:14:41.707Z,9.443544
2022-09-23T03:15:41.691Z,9.443551
2022-09-23T03:16:41.723Z,9.443607
2022-09-23T03:17:41.680Z,9.443570
2022-09-23T03:18:41.694Z,9.443709
2022-09-23T03:19:41.689Z,9.443691
2022-09-23T03:20:41.658Z,9.443784
2022-09-23T03:21:41.684Z,9.443707
2022-09-23T03:22:41.657Z,9.443736
2022-09-23T03:23:41.642Z,9.443608
2022-09-23T03:24:41.651Z,9.443591
2022-09-23T03:25:41.634Z,9.443711
2022-09-23T03:26:41.622Z,9.443672
2022-09-23T03:27:41.630Z,9.443697
2022-09-23T03:28:41.611Z,9.443672
2022-09-23T03:29:41.614Z,9.443606
2022-09-23T03:30:41.606Z,9.443604
2022-09-23T03:31:41.644Z,9.443583
2022-09-23T03:32:41.584Z,9.443615
2022-09-23T03:33:41.575Z,9.443601
2022-09-23T03:34:41.578Z,9.443594
2022-09-23T03:35:41.575Z,9.443630
2022-09-23T03:36:41.567Z,9.443667
2022-09-23T03:37:41.550Z,9.443616
2022-09-23T03:38:41.551Z,9.443598
2022-09-23T03:39:41.548Z,9.443636
2022-09-23T03:40:41.624Z,9.443705
2022-09-23T03:41:41.553Z,9.443745
2022-09-23T03:42:41.522Z,9.443687
2022-09-23T03:43:41.518Z,9.443683
2022-09-23T03:44:41.514Z,9.443727
2022-09-23T03:45:41.548Z,9.443734
2022-09-23T03:46:41.511Z,9.443713
2022-09-23T03:47:41.490Z,9.443662
2022-09-23T03:48:41.490Z,9.443681
2022-09-23T03:49:41.487Z,9.443701
2022-09-23T03:50:41.490Z,9.443642
2022-09-23T03:51:44.544Z,9.443673
2022-09-23T03:52:42.515Z,9.443664
2022-09-23T03:53:41.458Z,9.443663
2022-09-23T03:54:41.460Z,9.443873
2022-09-23T03:55:48.394Z,9.443828
2022-09-23T03:56:41.445Z,9.443808
2022-09-23T03:57:41.448Z,9.443717
2022-09-23T03:58:41.445Z,9.443714
2022-09-23T03:59:41.413Z,9.443764
2022-09-23T04:00:41.447Z,9.443750
2022-09-23T04:01:41.437Z,9.443718
2022-09-23T04:02:41.406Z,9.443740
2022-09-23T04:03:41.405Z,9.443753
2022-09-23T04:04:41.406Z,9.443745
2022-09-23T04:05:41.386Z,9.443745
2022-09-23T04:06:41.382Z,9.443755
2022-09-23T04:07:41.362Z,9.443756
2022-09-23T04:08:41.353Z,9.443735
2022-09-23T04:09:42.381Z,9.443742
2022-09-23T04:10:41.370Z,9.443757
2022-09-23T04:11:41.338Z,9.443778
2022-09-23T04:12:41.357Z,9.443755
2022-09-23T04:13:41.334Z,9.443781
2022-09-23T04:14:41.347Z,9.443788
2022-09-23T04:15:41.333Z,9.443768
2022-09-23T04:16:41.368Z,9.443771
2022-09-23T04:17:41.311Z,9.443761
2022-09-23T04:18:41.318Z,9.443782
2022-09-23T04:19:41.305Z,9.443764
2022-09-23T04:20:41.289Z,9.443791
2022-09-23T04:21:41.292Z,9.443773
2022-09-23T04:22:41.324Z,9.443793
2022-09-23T04:23:41.281Z,9.443682
2022-09-23T04:24:41.275Z,9.443757
2022-09-23T04:25:41.272Z,9.443750
2022-09-23T04:26:41.265Z,9.443777
2022-09-23T04:27:41.274Z,9.443790
2022-09-23T04:28:41.241Z,9.443776
2022-09-23T04:29:41.241Z,9.443772
2022-09-23T04:30:41.249Z,9.443789
2022-09-23T04:31:41.433Z,9.443820
2022-09-23T04:32:41.228Z,9.443808
2022-09-23T04:33:41.227Z,9.443846
2022-09-23T04:34:41.196Z,9.443767
2022-09-23T04:35:41.208Z,9.443748
2022-09-23T04:36:41.212Z,9.443756
2022-09-23T04:37:41.200Z,9.443745
2022-09-23T04:38:41.188Z,9.443741
2022-09-23T04:39:41.191Z,9.443748
2022-09-23T04:40:41.200Z,9.443738
2022-09-23T04:41:41.174Z,9.443753
2022-09-23T04:42:41.213Z,9.443755
2022-09-23T04:43:41.155Z,9.443755
2022-09-23T04:44:41.152Z,9.443719
2022-09-23T04:45:41.132Z,9.443694
2022-09-23T04:46:41.185Z,9.443698
2022-09-23T04:47:41.151Z,9.443705
2022-09-23T04:48:41.175Z,9.443731
2022-09-23T04:49:41.111Z,9.443691
2022-09-23T04:50:41.108Z,9.443684
2022-09-23T04:51:41.115Z,9.443687
2022-09-23T04:52:41.300Z,9.443687
2022-09-23T04:53:41.093Z,9.443805
2022-09-23T04:54:41.076Z,9.443804
2022-09-23T04:55:41.152Z,9.443756
2022-09-23T04:56:41.147Z,9.443748
2022-09-23T04:57:41.067Z,9.443762
2022-09-23T04:58:41.062Z,9.443725
2022-09-23T04:59:41.051Z,9.443712
2022-09-23T05:00:41.148Z,9.443730
2022-09-23T05:01:41.243Z,9.443821
2022-09-23T05:02:41.041Z,9.443792
2022-09-23T05:03:41.030Z,9.443759
2022-09-23T05:04:41.061Z,9.443786
2022-09-23T05:05:41.029Z,9.443741
2022-09-23T05:06:41.014Z,9.443771
2022-09-23T05:07:41.037Z,9.443724
2022-09-23T05:08:40.993Z,9.443708
2022-09-23T05:09:40.978Z,9.443645
2022-09-23T05:10:41.036Z,9.443757
2022-09-23T05:11:40.979Z,9.443650
2022-09-23T05:12:40.982Z,9.443748
2022-09-23T05:13:41.064Z,9.443666
2022-09-23T05:14:40.972Z,9.443721
2022-09-23T05:15:40.951Z,9.443705
2022-09-23T05:16:41.042Z,9.443688
2022-09-23T05:17:40.959Z,9.443686
2022-09-23T05:18:40.940Z,9.443663
2022-09-23T05:19:40.958Z,9.443720
2022-09-23T05:20:40.925Z,9.443725
2022-09-23T05:21:40.934Z,9.443785
2022-09-23T05:22:40.919Z,9.443718
2022-09-23T05:23:40.949Z,9.443722
2022-09-23T05:24:40.903Z,9.443721
2022-09-23T05:25:40.895Z,9.443741
2022-09-23T05:26:40.896Z,9.443694
2022-09-23T05:27:40.879Z,9.443747
2022-09-23T05:28:40.888Z,9.443751
2022-09-23T05:29:40.871Z,9.443719
2022-09-23T05:30:40.864Z,9.443698
2022-09-23T05:31:40.928Z,9.443762
2022-09-23T05:32:40.851Z,9.443699
2022-09-23T05:33:40.838Z,9.443734
2022-09-23T05:34:40.847Z,9.443782
2022-09-23T05:35:40.870Z,9.443829
2022-09-23T05:36:40.814Z,9.443683
2022-09-23T05:37:40.826Z,9.443720
2022-09-23T05:38:40.858Z,9.443728
2022-09-23T05:39:40.811Z,9.443726
2022-09-23T05:40:40.882Z,9.443757
2022-09-23T05:41:40.786Z,9.443809
2022-09-23T05:42:40.787Z,9.443798
2022-09-23T05:43:40.779Z,9.443771
2022-09-23T05:44:40.862Z,9.443707
2022-09-23T05:45:40.798Z,9.443715
2022-09-23T05:46:40.799Z,9.443742
2022-09-23T05:47:40.778Z,9.443710
2022-09-23T05:48:40.754Z,9.443696
2022-09-23T05:49:58.720Z,9.443724
2022-09-23T05:50:42.738Z,9.443678
2022-09-23T05:51:40.762Z,9.443666
2022-09-23T05:52:40.734Z,9.443685
2022-09-23T05:53:40.722Z,9.443697
2022-09-23T05:54:40.726Z,9.443728
2022-09-23T05:55:40.710Z,9.443721
2022-09-23T05:56:40.708Z,9.443589
2022-09-23T05:57:40.696Z,9.443710
2022-09-23T05:58:40.697Z,9.443749
2022-09-23T05:59:40.694Z,9.443781
2022-09-23T06:00:40.682Z,9.443646
2022-09-23T06:01:40.721Z,9.443664
2022-09-23T06:02:40.713Z,9.443624
2022-09-23T06:03:40.660Z,9.443653
2022-09-23T06:04:40.717Z,9.443685
2022-09-23T06:05:40.683Z,9.443672
2022-09-23T06:06:40.690Z,9.443583
2022-09-23T06:07:40.640Z,9.443614
2022-09-23T06:08:40.626Z,9.443688
2022-09-23T06:09:40.678Z,9.443690
2022-09-23T06:10:40.670Z,9.443705
2022-09-23T06:11:40.706Z,9.443629
2022-09-23T06:12:40.599Z,9.443624
2022-09-23T06:13:40.611Z,9.443656
2022-09-23T06:14:40.606Z,9.443711
2022-09-23T06:15:40.697Z,9.443746
2022-09-23T06:16:40.583Z,9.443704
2022-09-23T06:17:40.635Z,9.443683
2022-09-23T06:18:41.560Z,9.443654
2022-09-23T06:19:40.599Z,9.443693
2022-09-23T06:20:40.555Z,9.443708
2022-09-23T06:21:40.556Z,9.443661
2022-09-23T06:22:40.590Z,9.443593
2022-09-23T06:23:41.875Z,9.443668
2022-09-23T06:24:41.607Z,9.443567
2022-09-23T06:25:40.539Z,9.443629
2022-09-23T06:26:40.602Z,9.443673
2022-09-23T06:27:40.509Z,9.443687
2022-09-23T06:28:40.518Z,9.443580
2022-09-23T06:29:40.572Z,9.443559
2022-09-23T06:30:40.501Z,9.443623
2022-09-23T06:31:40.525Z,9.443676
2022-09-23T06:32:40.511Z,9.443722
2022-09-23T06:33:40.468Z,9.443676
2022-09-23T06:34:49.988Z,9.443622
2022-09-23T06:35:51.380Z,9.443774
2022-09-23T06:36:44.393Z,9.443687
2022-09-23T06:37:41.447Z,9.443677
2022-09-23T06:38:40.546Z,9.443750
2022-09-23T06:39:40.495Z,9.443743
2022-09-23T06:40:40.466Z,9.443783
2022-09-23T06:41:40.454Z,9.443758
2022-09-23T06:42:40.411Z,9.443728
2022-09-23T06:43:40.439Z,9.443728
2022-09-23T06:44:40.403Z,9.443628
2022-09-23T06:45:40.399Z,9.443617
2022-09-23T06:46:40.445Z,9.443666
2022-09-23T06:47:40.411Z,9.443781
2022-09-23T06:48:45.389Z,9.443716
2022-09-23T06:49:42.380Z,9.443748
2022-09-23T06:50:40.401Z,9.443819
2022-09-23T06:51:40.395Z,9.443747
2022-09-23T06:52:40.354Z,9.443735
2022-09-23T06:53:40.461Z,9.443717
2022-09-23T06:54:40.345Z,9.443729
2022-09-23T06:55:40.340Z,9.443729
2022-09-23T06:56:40.376Z,9.443756
2022-09-23T06:57:40.316Z,9.443753
2022-09-23T06:58:40.319Z,9.443778
2022-09-23T06:59:40.313Z,9.443773
2022-09-23T07:00:40.303Z,9.443811
2022-09-23T07:01:40.361Z,9.443723
2022-09-23T07:02:40.397Z,9.443794
2022-09-23T07:03:40.329Z,9.443826
2022-09-23T07:04:40.274Z,9.443867
2022-09-23T07:05:40.281Z,9.444013
2022-09-23T07:06:40.326Z,9.443966
2022-09-23T07:07:40.277Z,9.443968
2022-09-23T07:08:40.269Z,9.443954
2022-09-23T07:09:40.244Z,9.443985
2022-09-23T07:10:40.237Z,9.443776
2022-09-23T07:11:40.249Z,9.443708
2022-09-23T07:12:40.237Z,9.443749
2022-09-23T07:13:40.228Z,9.443825
2022-09-23T07:14:40.241Z,9.443785
2022-09-23T07:15:40.246Z,9.443818
2022-09-23T07:16:40.214Z,9.443805
2022-09-23T07:17:40.222Z,9.443745
2022-09-23T07:18:40.192Z,9.443742
2022-09-23T07:19:40.188Z,9.443698
2022-09-23T07:20:40.197Z,9.443660
2022-09-23T07:21:40.164Z,9.443733
2022-09-23T07:22:40.201Z,9.443720
2022-09-23T07:23:40.184Z,9.443780
2022-09-23T07:24:40.161Z,9.443725
2022-09-23T07:25:40.153Z,9.443777
2022-09-23T07:26:44.932Z,9.443709
2022-09-23T07:27:42.154Z,9.443774
2022-09-23T07:28:40.147Z,9.443781
2022-09-23T07:29:47.868Z,9.443725
2022-09-23T07:30:52.749Z,9.443763
2022-09-23T07:31:42.132Z,9.443809
2022-09-23T07:32:48.019Z,9.443792
2022-09-23T07:33:42.180Z,9.443806
2022-09-23T07:34:40.844Z,9.443779
2022-09-23T07:35:40.096Z,9.443777
2022-09-23T07:36:40.082Z,9.443776
2022-09-23T07:37:40.075Z,9.443756
2022-09-23T07:38:44.987Z,9.443754
2022-09-23T07:39:42.084Z,9.443745
2022-09-23T07:40:40.121Z,9.443713
2022-09-23T07:41:40.056Z,9.443743
2022-09-23T07:42:40.057Z,9.443754
2022-09-23T07:43:40.057Z,9.443760
2022-09-23T07:44:40.031Z,9.443728
2022-09-23T07:45:40.041Z,9.443716
2022-09-23T07:46:40.163Z,9.443751
2022-09-23T07:47:40.011Z,9.443736
2022-09-23T07:48:40.855Z,9.443747
2022-09-23T07:49:40.009Z,9.443713
2022-09-23T07:50:39.982Z,9.443746
2022-09-23T07:51:40.006Z,9.443740
2022-09-23T07:52:39.985Z,9.443738
2022-09-23T07:53:39.983Z,9.443764
2022-09-23T07:54:40.017Z,9.443716
2022-09-23T07:55:39.950Z,9.443709
2022-09-23T07:56:39.946Z,9.443701
2022-09-23T07:57:39.963Z,9.443766
2022-09-23T07:58:39.961Z,9.443788
2022-09-23T07:59:39.965Z,9.443810
2022-09-23T08:00:39.925Z,9.443669
2022-09-23T08:01:40.897Z,9.443691
2022-09-23T08:02:40.019Z,9.443691
2022-09-23T08:03:39.926Z,9.443769
2022-09-23T08:04:39.899Z,9.443771
2022-09-23T08:05:39.905Z,9.443766
2022-09-23T08:06:39.888Z,9.443752
2022-09-23T08:07:39.887Z,9.443759
2022-09-23T08:08:39.872Z,9.443728
2022-09-23T08:09:39.915Z,9.443726
2022-09-23T08:10:39.865Z,9.443753
2022-09-23T08:11:39.858Z,9.443748
2022-09-23T08:12:39.936Z,9.443750
2022-09-23T08:13:39.835Z,9.443750
2022-09-23T08:14:39.919Z,9.443750
2022-09-23T08:15:39.886Z,9.443746
2022-09-23T08:16:39.894Z,9.443702
2022-09-23T08:17:39.817Z,9.443710
2022-09-23T08:18:39.815Z,9.443747
2022-09-23T08:19:39.900Z,9.443777
2022-09-23T08:20:42.556Z,9.443695
2022-09-23T08:21:40.800Z,9.443687
2022-09-23T08:22:39.787Z,9.443681
2022-09-23T08:23:39.772Z,9.443665
2022-09-23T08:24:39.787Z,9.443714
2022-09-23T08:25:39.788Z,9.443751
2022-09-23T08:26:39.752Z,9.443618
2022-09-23T08:27:39.771Z,9.443674
2022-09-23T08:28:39.756Z,9.443731
2022-09-23T08:29:39.743Z,9.443701
2022-09-23T08:30:39.816Z,9.443675
2022-09-23T08:31:39.731Z,9.443696
2022-09-23T08:32:39.727Z,9.443701
2022-09-23T08:33:39.755Z,9.443687
2022-09-23T08:34:39.717Z,9.443569
2022-09-23T08:35:39.722Z,9.443641
2022-09-23T08:36:40.438Z,9.443708
2022-09-23T08:37:39.811Z,9.443713
2022-09-23T08:38:39.679Z,9.443708
2022-09-23T08:40:11.675Z,9.443638
2022-09-23T08:40:39.720Z,9.443694
2022-09-23T08:41:39.676Z,9.443691
2022-09-23T08:42:39.656Z,9.443641
2022-09-23T08:43:39.648Z,9.443628
2022-09-23T08:44:39.625Z,9.443592
2022-09-23T08:45:40.648Z,9.443734
2022-09-23T08:46:40.384Z,9.443749
2022-09-23T08:47:39.619Z,9.443720
2022-09-23T08:48:39.617Z,9.443647
2022-09-23T08:49:39.612Z,9.443675
2022-09-23T08:50:39.613Z,9.443608
2022-09-23T08:51:39.640Z,9.443678
2022-09-23T08:52:39.705Z,9.443703
2022-09-23T08:53:39.604Z,9.443679
2022-09-23T08:54:39.888Z,9.443647
2022-09-23T08:55:39.595Z,9.443584
2022-09-23T08:56:39.572Z,9.443675
2022-09-23T08:57:39.563Z,9.443698
2022-09-23T08:58:39.561Z,9.443771
2022-09-23T08:59:39.571Z,9.443573
2022-09-23T09:00:39.567Z,9.443699
2022-09-23T09:01:39.648Z,9.443677
2022-09-23T09:02:39.565Z,9.443586
2022-09-23T09:03:40.523Z,9.443597
2022-09-23T09:04:39.572Z,9.443536
2022-09-23T09:05:39.507Z,9.443550
2022-09-23T09:06:52.296Z,9.443625
2022-09-23T09:07:41.505Z,9.443788
2022-09-23T09:08:39.481Z,9.443754
2022-09-23T09:09:39.489Z,9.443770
2022-09-23T09:10:39.463Z,9.443710
2022-09-23T09:11:39.488Z,9.443703
2022-09-23T09:12:39.493Z,9.443770
2022-09-23T09:13:39.536Z,9.443734
2022-09-23T09:14:39.443Z,9.443623
2022-09-23T09:15:39.521Z,9.443616
2022-09-23T09:16:58.922Z,9.443672
2022-09-23T09:17:41.453Z,9.443649
2022-09-23T09:18:39.445Z,9.443615
2022-09-23T09:19:39.433Z,9.443662
2022-09-23T09:20:39.417Z,9.443671
2022-09-23T09:21:39.406Z,9.443652
2022-09-23T09:22:39.415Z,9.443722
2022-09-23T09:23:39.418Z,9.443746
2022-09-23T09:24:39.423Z,9.443725
2022-09-23T09:25:39.382Z,9.443764
2022-09-23T09:26:39.400Z,9.443726
2022-09-23T09:27:39.358Z,9.443686
2022-09-23T09:28:39.378Z,9.443721
2022-09-23T09:29:39.559Z,9.443708
2022-09-23T09:30:39.443Z,9.443707
2022-09-23T09:31:39.415Z,9.443678
2022-09-23T09:32:39.340Z,9.443682
2022-09-23T09:33:39.350Z,9.443681
2022-09-23T09:34:39.362Z,9.443700
2022-09-23T09:35:41.722Z,9.443705
2022-09-23T09:36:39.343Z,9.443694
2022-09-23T09:37:39.302Z,9.443690
2022-09-23T09:38:39.320Z,9.443641
2022-09-23T09:39:39.332Z,9.443635
2022-09-23T09:40:39.453Z,9.443672
2022-09-23T09:41:39.292Z,9.443730
2022-09-23T09:42:39.578Z,9.443719
2022-09-23T09:43:43.481Z,9.443717
2022-09-23T09:44:40.268Z,9.443732
2022-09-23T09:45:39.288Z,9.443708
2022-09-23T09:46:39.974Z,9.443728
2022-09-23T09:47:39.257Z,9.443734
2022-09-23T09:48:39.249Z,9.443747
2022-09-23T09:49:40.668Z,9.443732
2022-09-23T09:50:40.236Z,9.443767
2022-09-23T09:51:39.263Z,9.443760
2022-09-23T09:52:39.787Z,9.443708
2022-09-23T09:53:40.183Z,9.443599
2022-09-23T09:54:39.155Z,9.443595
2022-09-23T09:55:39.154Z,9.443685
2022-09-23T09:56:39.157Z,9.443703
2022-09-23T09:57:39.177Z,9.443679
2022-09-23T09:58:39.120Z,9.443782
2022-09-23T09:59:39.172Z,9.443573
2022-09-23T10:00:40.123Z,9.443655
2022-09-23T10:01:39.138Z,9.443505
2022-09-23T10:02:39.186Z,9.443849
2022-09-23T10:03:39.100Z,9.443750
2022-09-23T10:04:39.237Z,9.443588
2022-09-23T10:05:39.094Z,9.443394
2022-09-23T10:06:39.181Z,9.443597
2022-09-23T10:07:39.070Z,9.443564
2022-09-23T10:08:39.124Z,9.443546
2022-09-23T10:09:39.122Z,9.443562
2022-09-23T10:10:39.068Z,9.443610
2022-09-23T10:11:39.096Z,9.443657
2022-09-23T10:12:39.089Z,9.443606
2022-09-23T10:13:39.044Z,9.443702
2022-09-23T10:14:39.057Z,9.443697
2022-09-23T10:15:42.484Z,9.443598
2022-09-23T10:16:41.096Z,9.443666
2022-09-23T10:17:39.056Z,9.443605
2022-09-23T10:18:39.035Z,9.443561
2022-09-23T10:19:39.048Z,9.443534
2022-09-23T10:20:39.045Z,9.443602
2022-09-23T10:21:39.010Z,9.443545
2022-09-23T10:22:39.011Z,9.443531
2022-09-23T10:23:38.999Z,9.443696
2022-09-23T10:24:39.012Z,9.443715
2022-09-23T10:25:38.980Z,9.443658
2022-09-23T10:26:39.007Z,9.443696
2022-09-23T10:27:38.973Z,9.443817
2022-09-23T10:28:38.971Z,9.443687
2022-09-23T10:29:38.984Z,9.443611
2022-09-23T10:30:39.016Z,9.443639
2022-09-23T10:31:38.951Z,9.443627
2022-09-23T10:32:38.925Z,9.443659
2022-09-23T10:33:38.920Z,9.443604
2022-09-23T10:34:38.918Z,9.443606
2022-09-23T10:35:38.905Z,9.443688
2022-09-23T10:36:43.747Z,9.443674
2022-09-23T10:37:40.935Z,9.443610
2022-09-23T10:38:38.899Z,9.443562
2022-09-23T10:39:38.893Z,9.443629
2022-09-23T10:40:39.103Z,9.443680
2022-09-23T10:41:38.866Z,9.443598
2022-09-23T10:42:38.881Z,9.443557
2022-09-23T10:43:38.865Z,9.443688
2022-09-23T10:44:38.868Z,9.443707
2022-09-23T10:45:41.184Z,9.443709
2022-09-23T10:46:39.008Z,9.443668
2022-09-23T10:47:38.856Z,9.443638
2022-09-23T10:48:38.860Z,9.443697
2022-09-23T10:49:38.841Z,9.443762
2022-09-23T10:50:38.818Z,9.443738
2022-09-23T10:51:38.809Z,9.443680
2022-09-23T10:52:38.840Z,9.443653
2022-09-23T10:53:38.829Z,9.443608
2022-09-23T10:54:38.793Z,9.443656
2022-09-23T10:55:39.364Z,9.443711
2022-09-23T10:56:38.795Z,9.443670
2022-09-23T10:57:38.791Z,9.443683
2022-09-23T10:58:38.795Z,9.443657
2022-09-23T10:59:38.780Z,9.443526
2022-09-23T11:00:38.783Z,9.443546
2022-09-23T11:01:38.916Z,9.443618
2022-09-23T11:02:38.756Z,9.443603
2022-09-23T11:03:39.393Z,9.443703
2022-09-23T11:04:38.891Z,9.443689
2022-09-23T11:05:38.738Z,9.443680
2022-09-23T11:06:38.753Z,9.443690
2022-09-23T11:07:38.738Z,9.443707
2022-09-23T11:08:38.734Z,9.443769
2022-09-23T11:09:39.410Z,9.443713
2022-09-23T11:10:46.719Z,9.443639
2022-09-23T11:11:40.739Z,9.443627
2022-09-23T11:12:38.709Z,9.443676
2022-09-23T11:13:38.706Z,9.443768
2022-09-23T11:14:38.698Z,9.443789
2022-09-23T11:15:38.735Z,9.443780
2022-09-23T11:16:38.799Z,9.443696
2022-09-23T11:17:38.685Z,9.443744
2022-09-23T11:18:38.676Z,9.443791
2022-09-23T11:19:42.221Z,9.443808
2022-09-23T11:20:40.694Z,9.443771
2022-09-23T11:21:38.670Z,9.443714
2022-09-23T11:22:38.686Z,9.443612
2022-09-23T11:23:38.687Z,9.443709
2022-09-23T11:24:38.666Z,9.443689
2022-09-23T11:25:38.663Z,9.443566
2022-09-23T11:26:38.660Z,9.443547
2022-09-23T11:27:38.642Z,9.443713
2022-09-23T11:28:38.638Z,9.443713
2022-09-23T11:29:38.654Z,9.443730
2022-09-23T11:30:38.650Z,9.443746
2022-09-23T11:31:38.594Z,9.443813
2022-09-23T11:32:38.605Z,9.443759
2022-09-23T11:33:38.579Z,9.443800
2022-09-23T11:34:38.576Z,9.443776
2022-09-23T11:35:38.596Z,9.443736
2022-09-23T11:36:38.597Z,9.443765
2022-09-23T11:37:38.560Z,9.443599
2022-09-23T11:38:38.557Z,9.443678
2022-09-23T11:39:38.555Z,9.443762
2022-09-23T11:40:42.352Z,9.443705
2022-09-23T11:41:40.579Z,9.443700
2022-09-23T11:42:38.519Z,9.443784
2022-09-23T11:43:38.538Z,9.443608
2022-09-23T11:44:38.536Z,9.443704